createdAt,value
2018-07-30T00:00:36.665Z,23.70
2018-07-30T00:03:06.660Z,23.50
2018-07-30T00:05:36.740Z,23.50
2018-07-30T00:08:06.805Z,24.00
2018-07-30T00:10:37.054Z,24.30
2018-07-30T00:13:07.024Z,24.30
2018-07-30T00:15:36.991Z,24.10
2018-07-30T00:18:06.986Z,23.50
2018-07-30T00:20:37.002Z,23.30
2018-07-30T00:23:06.815Z,23.00
2018-07-30T00:25:38.728Z,23.30
2018-07-30T00:28:08.620Z,24.00
2018-07-30T00:30:38.602Z,24.10
2018-07-30T00:33:08.718Z,24.00
2018-07-30T00:35:38.564Z,23.80
2018-07-30T00:38:08.547Z,23.50
2018-07-30T00:40:39.367Z,23.00
2018-07-30T00:43:09.110Z,23.20
2018-07-30T00:45:39.094Z,23.80
2018-07-30T00:48:09.139Z,23.40
2018-07-30T00:50:38.959Z,23.30
2018-07-30T00:53:08.766Z,23.00
2018-07-30T00:55:38.814Z,22.80
2018-07-30T00:58:08.634Z,22.80
2018-07-30T01:00:38.647Z,23.10
2018-07-30T01:03:13.024Z,22.90
2018-07-30T01:05:42.759Z,22.90
2018-07-30T01:08:12.716Z,22.70
2018-07-30T01:10:42.726Z,22.60
2018-07-30T01:13:12.814Z,22.50
2018-07-30T01:15:42.689Z,22.50
2018-07-30T01:18:12.642Z,22.60
2018-07-30T01:20:42.439Z,22.50
2018-07-30T01:23:12.175Z,22.60
2018-07-30T01:25:43.316Z,22.60
2018-07-30T01:28:13.385Z,23.20
2018-07-30T01:30:43.273Z,23.00
2018-07-30T01:33:13.079Z,23.30
2018-07-30T01:35:42.896Z,23.50
2018-07-30T01:38:12.812Z,23.60
2018-07-30T01:40:44.795Z,23.10
2018-07-30T01:43:14.936Z,22.60
2018-07-30T01:45:45.035Z,22.40
2018-07-30T01:48:14.945Z,22.40
2018-07-30T01:50:44.682Z,22.50
2018-07-30T01:53:14.731Z,22.20
2018-07-30T01:55:44.574Z,22.10
2018-07-30T01:58:14.595Z,22.30
2018-07-30T02:00:44.739Z,22.00
2018-07-30T02:03:14.760Z,22.30
2018-07-30T02:05:44.495Z,22.40
2018-07-30T02:08:14.339Z,22.80
2018-07-30T02:10:44.433Z,23.00
2018-07-30T02:13:14.484Z,23.20
2018-07-30T02:15:44.333Z,23.10
2018-07-30T02:18:14.907Z,22.40
2018-07-30T02:20:44.931Z,21.90
2018-07-30T02:23:14.799Z,22.10
2018-07-30T02:25:44.732Z,21.80
2018-07-30T02:28:14.565Z,21.80
2018-07-30T02:30:44.570Z,22.00
2018-07-30T02:33:14.294Z,22.40
2018-07-30T02:35:46.354Z,22.50
2018-07-30T02:38:16.258Z,22.40
2018-07-30T02:40:46.234Z,22.60
2018-07-30T02:43:16.016Z,22.50
2018-07-30T02:45:46.096Z,22.50
2018-07-30T02:48:16.118Z,22.20
2018-07-30T02:50:46.163Z,21.50
2018-07-30T02:53:16.146Z,21.20
2018-07-30T02:55:45.929Z,20.90
2018-07-30T02:58:15.965Z,21.10
2018-07-30T03:00:46.077Z,21.30
2018-07-30T03:03:15.974Z,21.50
2018-07-30T03:05:45.970Z,21.10
2018-07-30T03:08:15.895Z,21.00
2018-07-30T03:10:45.839Z,20.90
2018-07-30T03:13:15.706Z,20.80
2018-07-30T03:15:45.564Z,20.80
2018-07-30T03:18:15.379Z,20.70
2018-07-30T03:20:46.002Z,20.60
2018-07-30T03:23:15.752Z,20.80
2018-07-30T03:25:45.552Z,21.00
2018-07-30T03:28:15.387Z,21.20
2018-07-30T03:30:45.451Z,21.30
2018-07-30T03:33:15.467Z,21.30
2018-07-30T03:35:45.946Z,21.40
2018-07-30T03:38:15.954Z,21.60
2018-07-30T03:40:45.994Z,21.90
2018-07-30T03:43:15.811Z,21.80
2018-07-30T03:45:45.891Z,21.30
2018-07-30T03:48:15.644Z,20.90
2018-07-30T03:50:45.718Z,21.00
2018-07-30T03:53:15.497Z,20.80
2018-07-30T03:55:45.542Z,21.00
2018-07-30T03:58:15.687Z,20.90
2018-07-30T04:00:45.428Z,20.90
2018-07-30T04:03:15.326Z,20.40
2018-07-30T04:05:45.559Z,20.20
2018-07-30T04:08:15.378Z,20.40
2018-07-30T04:10:45.643Z,20.80
2018-07-30T04:13:15.753Z,21.20
2018-07-30T04:15:45.773Z,21.60
2018-07-30T04:18:16.391Z,21.60
2018-07-30T04:20:46.393Z,21.60
2018-07-30T04:23:16.204Z,21.10
2018-07-30T04:25:45.991Z,20.70
2018-07-30T04:28:16.003Z,20.40
2018-07-30T04:30:45.860Z,20.20
2018-07-30T04:33:15.691Z,20.60
2018-07-30T04:35:45.694Z,21.10
2018-07-30T04:38:15.717Z,20.70
2018-07-30T04:40:45.597Z,20.60
2018-07-30T04:43:15.594Z,20.60
2018-07-30T04:45:46.286Z,20.30
2018-07-30T04:48:16.160Z,20.50
2018-07-30T04:50:46.105Z,20.60
2018-07-30T04:53:15.824Z,21.00
2018-07-30T04:55:45.638Z,21.00
2018-07-30T04:58:15.432Z,21.00
2018-07-30T05:00:45.557Z,21.10
2018-07-30T05:03:15.664Z,20.50
2018-07-30T05:05:45.734Z,20.30
2018-07-30T05:08:15.931Z,20.10
2018-07-30T05:10:45.878Z,20.30
2018-07-30T05:13:16.063Z,20.40
2018-07-30T05:15:46.165Z,20.50
2018-07-30T05:18:16.213Z,20.50
2018-07-30T05:20:46.285Z,20.70
2018-07-30T05:23:16.347Z,20.90
2018-07-30T05:25:46.114Z,21.10
2018-07-30T05:28:16.211Z,21.40
2018-07-30T05:30:45.988Z,21.60
2018-07-30T05:33:16.152Z,21.50
2018-07-30T05:35:46.320Z,21.10
2018-07-30T05:38:16.037Z,21.40
2018-07-30T05:40:46.188Z,21.70
2018-07-30T05:43:16.138Z,21.80
2018-07-30T05:45:45.994Z,22.00
2018-07-30T05:48:15.788Z,22.00
2018-07-30T05:50:45.563Z,21.90
2018-07-30T05:53:15.662Z,22.00
2018-07-30T05:55:45.795Z,21.70
2018-07-30T05:58:15.908Z,22.00
2018-07-30T06:00:45.763Z,22.20
2018-07-30T06:03:15.884Z,22.20
2018-07-30T06:05:46.132Z,22.30
2018-07-30T06:08:16.235Z,22.30
2018-07-30T06:10:46.083Z,22.40
2018-07-30T06:13:15.936Z,22.40
2018-07-30T06:15:47.205Z,22.40
2018-07-30T06:18:17.016Z,22.50
2018-07-30T06:20:47.044Z,22.20
2018-07-30T06:23:16.907Z,22.30
2018-07-30T06:25:47.320Z,22.50
2018-07-30T06:28:17.206Z,22.40
2018-07-30T06:30:47.443Z,22.40
2018-07-30T06:33:17.511Z,22.50
2018-07-30T06:35:47.641Z,22.50
2018-07-30T06:38:18.072Z,22.60
2018-07-30T06:40:48.339Z,22.80
2018-07-30T06:43:18.581Z,22.90
2018-07-30T06:45:48.672Z,23.00
2018-07-30T06:48:18.519Z,23.10
2018-07-30T06:50:48.690Z,23.20
2018-07-30T06:53:18.623Z,23.40
2018-07-30T06:55:48.603Z,23.40
2018-07-30T06:58:18.991Z,23.50
2018-07-30T07:00:48.820Z,23.50
2018-07-30T07:03:21.281Z,23.60
2018-07-30T07:05:51.524Z,23.70
2018-07-30T07:08:21.901Z,23.80
2018-07-30T07:10:54.166Z,23.90
2018-07-30T07:13:24.250Z,24.00
2018-07-30T07:15:54.320Z,24.20
2018-07-30T07:18:24.137Z,24.30
2018-07-30T07:20:54.387Z,24.50
2018-07-30T07:23:24.225Z,24.60
2018-07-30T07:25:54.314Z,24.70
2018-07-30T07:28:24.094Z,24.70
2018-07-30T07:30:54.072Z,24.80
2018-07-30T07:33:24.083Z,25.00
2018-07-30T07:35:53.894Z,25.10
2018-07-30T07:38:24.085Z,25.40
2018-07-30T07:40:54.097Z,25.60
2018-07-30T07:43:23.823Z,25.60
2018-07-30T07:45:53.794Z,25.70
2018-07-30T07:48:23.615Z,25.80
2018-07-30T07:50:53.854Z,26.00
2018-07-30T07:53:23.900Z,26.20
2018-07-30T07:55:54.008Z,26.50
2018-07-30T07:58:24.150Z,26.80
2018-07-30T08:00:53.947Z,26.80
2018-07-30T08:03:24.415Z,26.80
2018-07-30T08:05:54.494Z,26.80
2018-07-30T08:08:24.647Z,26.80
2018-07-30T08:10:54.558Z,27.00
2018-07-30T08:13:24.767Z,27.20
2018-07-30T08:15:54.795Z,27.30
2018-07-30T08:18:24.939Z,27.30
2018-07-30T08:20:55.070Z,27.50
2018-07-30T08:23:25.475Z,27.60
2018-07-30T08:25:55.502Z,27.80
2018-07-30T08:28:25.543Z,27.90
2018-07-30T08:30:55.666Z,27.90
2018-07-30T08:33:25.435Z,28.10
2018-07-30T08:35:56.169Z,27.90
2018-07-30T08:38:26.265Z,28.10
2018-07-30T08:40:56.429Z,28.30
2018-07-30T08:43:26.656Z,28.40
2018-07-30T08:45:56.725Z,28.50
2018-07-30T08:48:26.742Z,28.60
2018-07-30T08:50:56.985Z,28.60
2018-07-30T08:53:27.185Z,28.90
2018-07-30T08:55:58.746Z,28.90
2018-07-30T08:58:29.792Z,28.90
2018-07-30T09:00:59.984Z,29.10
2018-07-30T09:03:30.088Z,29.00
2018-07-30T09:06:00.150Z,29.20
2018-07-30T09:08:30.235Z,29.30
2018-07-30T09:11:00.414Z,29.30
2018-07-30T09:13:30.602Z,29.60
2018-07-30T09:16:02.653Z,29.60
2018-07-30T09:18:34.647Z,29.90
2018-07-30T09:21:04.893Z,30.10
2018-07-30T09:23:35.150Z,30.20
2018-07-30T09:26:06.307Z,30.50
2018-07-30T09:28:36.395Z,30.50
2018-07-30T09:31:06.479Z,30.50
2018-07-30T09:33:36.701Z,30.50
2018-07-30T09:36:06.824Z,30.70
2018-07-30T09:38:37.104Z,30.80
2018-07-30T09:41:07.143Z,30.90
2018-07-30T09:43:37.966Z,30.90
2018-07-30T09:46:08.086Z,30.40
2018-07-30T09:48:38.255Z,30.60
2018-07-30T09:51:09.289Z,30.70
2018-07-30T09:53:39.502Z,30.90
2018-07-30T09:56:09.551Z,31.10
2018-07-30T09:58:39.471Z,31.00
2018-07-30T10:01:13.534Z,31.00
2018-07-30T10:03:43.558Z,30.90
2018-07-30T10:06:13.703Z,31.30
2018-07-30T10:08:43.898Z,31.30
2018-07-30T10:11:14.115Z,31.00
2018-07-30T10:13:43.977Z,31.70
2018-07-30T10:16:13.847Z,31.50
2018-07-30T10:18:44.057Z,31.50
2018-07-30T10:21:13.821Z,31.70
2018-07-30T10:23:44.087Z,32.00
2018-07-30T10:26:13.960Z,31.80
2018-07-30T10:28:43.924Z,31.70
2018-07-30T10:31:13.982Z,32.00
2018-07-30T10:33:43.835Z,32.00
2018-07-30T10:36:13.715Z,32.30
2018-07-30T10:38:44.148Z,32.40
2018-07-30T10:41:14.365Z,32.60
2018-07-30T10:43:44.422Z,32.80
2018-07-30T10:46:14.654Z,32.70
2018-07-30T10:48:44.996Z,32.60
2018-07-30T10:51:15.010Z,32.60
2018-07-30T10:53:45.229Z,32.90
2018-07-30T10:56:15.340Z,33.20
2018-07-30T10:58:45.496Z,33.00
2018-07-30T11:01:15.613Z,32.80
2018-07-30T11:03:45.470Z,33.00
2018-07-30T11:06:15.560Z,33.10
2018-07-30T11:08:45.625Z,33.20
2018-07-30T11:11:15.647Z,33.30
2018-07-30T11:13:45.829Z,32.80
2018-07-30T11:16:15.978Z,33.10
2018-07-30T11:18:46.040Z,33.40
2018-07-30T11:21:16.155Z,33.80
2018-07-30T11:23:46.449Z,33.70
2018-07-30T11:26:16.538Z,33.70
2018-07-30T11:28:47.059Z,34.00
2018-07-30T11:31:17.899Z,33.90
2018-07-30T11:33:47.927Z,33.80
2018-07-30T11:36:18.113Z,32.90
2018-07-30T11:38:48.263Z,33.40
2018-07-30T11:41:18.496Z,33.70
2018-07-30T11:43:48.591Z,34.00
2018-07-30T11:46:18.843Z,33.90
2018-07-30T11:48:49.123Z,34.30
2018-07-30T11:51:19.135Z,34.20
2018-07-30T11:53:49.150Z,34.60
2018-07-30T11:56:19.783Z,34.80
2018-07-30T12:02:00.648Z,34.80
2018-07-30T12:04:30.968Z,34.70
2018-07-30T12:07:01.496Z,34.70
2018-07-30T12:09:31.527Z,34.90
2018-07-30T12:12:01.513Z,35.00
2018-07-30T12:14:31.416Z,35.10
2018-07-30T12:17:01.375Z,35.30
2018-07-30T12:19:31.323Z,35.20
2018-07-30T12:22:01.301Z,35.20
2018-07-30T12:24:31.479Z,35.00
2018-07-30T12:27:01.710Z,35.40
2018-07-30T12:29:32.047Z,35.40
2018-07-30T12:32:02.444Z,35.00
2018-07-30T12:34:32.507Z,34.90
2018-07-30T12:37:02.652Z,35.20
2018-07-30T12:39:32.968Z,35.30
2018-07-30T12:42:02.897Z,35.40
2018-07-30T12:44:33.128Z,35.40
2018-07-30T12:47:03.415Z,35.20
2018-07-30T12:49:33.474Z,35.50
2018-07-30T12:52:03.430Z,35.70
2018-07-30T12:54:34.053Z,35.90
2018-07-30T12:57:04.120Z,35.60
2018-07-30T12:59:34.588Z,35.10
2018-07-30T13:02:04.857Z,35.20
2018-07-30T13:04:34.985Z,35.40
2018-07-30T13:07:04.973Z,35.40
2018-07-30T13:09:34.879Z,35.40
2018-07-30T13:12:04.938Z,35.40
2018-07-30T13:14:35.141Z,35.30
2018-07-30T13:17:05.291Z,34.80
2018-07-30T13:19:35.707Z,34.90
2018-07-30T13:22:05.952Z,35.00
2018-07-30T13:24:36.176Z,34.60
2018-07-30T13:27:06.275Z,34.60
2018-07-30T13:29:36.314Z,34.70
2018-07-30T13:32:06.434Z,34.90
2018-07-30T13:34:36.551Z,34.90
2018-07-30T13:37:06.590Z,35.30
2018-07-30T13:39:37.788Z,35.20
2018-07-30T13:42:07.955Z,35.40
2018-07-30T13:44:37.923Z,35.90
2018-07-30T13:47:08.258Z,35.90
2018-07-30T13:49:38.724Z,35.60
2018-07-30T13:52:08.877Z,36.20
2018-07-30T13:54:39.069Z,36.00
2018-07-30T13:57:09.484Z,35.50
2018-07-30T13:59:39.716Z,35.60
2018-07-30T14:02:10.059Z,35.50
2018-07-30T14:04:40.075Z,35.60
2018-07-30T14:07:10.198Z,35.30
2018-07-30T14:09:40.204Z,35.30
2018-07-30T14:12:10.216Z,35.50
2018-07-30T14:14:40.268Z,35.20
2018-07-30T14:17:10.301Z,35.00
2018-07-30T14:19:40.179Z,35.20
2018-07-30T14:22:10.539Z,35.30
2018-07-30T14:24:40.732Z,35.00
2018-07-30T14:27:10.915Z,34.80
2018-07-30T14:29:41.066Z,34.80
2018-07-30T14:32:11.080Z,34.80
2018-07-30T14:34:41.234Z,34.90
2018-07-30T14:37:11.147Z,34.80
2018-07-30T14:39:40.937Z,34.90
2018-07-30T14:42:11.006Z,34.90
2018-07-30T14:44:40.894Z,34.80
2018-07-30T14:47:10.987Z,34.60
2018-07-30T14:49:41.293Z,34.70
2018-07-30T14:52:11.378Z,34.80
2018-07-30T14:54:41.454Z,35.00
2018-07-30T14:57:11.351Z,35.20
2018-07-30T14:59:41.484Z,35.40
2018-07-30T15:02:11.574Z,35.20
2018-07-30T15:04:41.620Z,35.30
2018-07-30T15:07:11.501Z,35.20
2018-07-30T15:09:42.028Z,35.30
2018-07-30T15:12:12.130Z,35.50
2018-07-30T15:14:42.272Z,35.20
2018-07-30T15:17:12.464Z,35.00
2018-07-30T15:19:42.518Z,35.30
2018-07-30T15:22:12.699Z,35.20
2018-07-30T15:24:42.780Z,35.40
2018-07-30T15:27:12.619Z,34.90
2018-07-30T15:29:42.638Z,34.90
2018-07-30T15:32:12.881Z,34.60
2018-07-30T15:34:42.923Z,34.60
2018-07-30T15:37:12.896Z,34.60
2018-07-30T15:39:42.701Z,34.60
2018-07-30T15:42:12.831Z,34.70
2018-07-30T15:44:43.007Z,34.70
2018-07-30T15:47:13.163Z,34.80
2018-07-30T15:49:44.432Z,35.00
2018-07-30T15:52:25.222Z,35.00
2018-07-30T15:58:05.300Z,34.50
2018-07-30T16:00:38.522Z,34.60
2018-07-30T16:03:08.459Z,34.80
2018-07-30T16:05:38.584Z,34.50
2018-07-30T16:08:08.864Z,34.60
2018-07-30T16:10:39.853Z,34.70
2018-07-30T16:13:09.846Z,34.90
2018-07-30T16:15:39.810Z,35.00
2018-07-30T16:18:09.901Z,35.00
2018-07-30T16:20:40.099Z,35.00
2018-07-30T16:23:10.129Z,34.90
2018-07-30T16:25:40.089Z,35.00
2018-07-30T16:28:10.117Z,35.00
2018-07-30T16:30:40.417Z,35.00
2018-07-30T16:33:11.152Z,35.10
2018-07-30T16:35:41.857Z,35.00
2018-07-30T16:38:12.043Z,35.10
2018-07-30T16:40:42.071Z,35.10
2018-07-30T16:43:12.661Z,35.30
2018-07-30T16:45:42.809Z,35.30
2018-07-30T16:48:12.892Z,35.30
2018-07-30T16:50:42.900Z,35.30
2018-07-30T16:53:12.998Z,35.20
2018-07-30T16:55:43.240Z,35.20
2018-07-30T16:58:13.911Z,35.00
2018-07-30T17:01:07.704Z,34.90
2018-07-30T17:03:37.932Z,34.90
2018-07-30T17:06:08.015Z,34.60
2018-07-30T17:08:38.229Z,34.70
2018-07-30T17:11:08.341Z,34.50
2018-07-30T17:13:38.540Z,34.30
2018-07-30T17:16:36.417Z,34.30
2018-07-30T17:19:06.656Z,34.20
2018-07-30T17:21:37.882Z,34.20
2018-07-30T17:24:07.947Z,33.70
2018-07-30T17:26:37.869Z,33.80
2018-07-30T17:29:08.564Z,33.90
2018-07-30T17:31:38.998Z,33.70
2018-07-30T17:34:09.110Z,33.40
2018-07-30T17:36:38.863Z,33.40
2018-07-30T17:39:10.662Z,33.20
2018-07-30T17:41:40.587Z,33.30
2018-07-30T17:44:10.302Z,33.30
2018-07-30T17:46:40.043Z,33.10
2018-07-30T17:49:09.839Z,33.10
2018-07-30T17:51:39.701Z,33.20
2018-07-30T17:54:09.528Z,33.00
2018-07-30T17:56:39.434Z,33.00
2018-07-30T17:59:09.810Z,33.00
2018-07-30T18:01:41.151Z,32.80
2018-07-30T18:04:38.703Z,32.90
2018-07-30T18:13:52.723Z,32.50
2018-07-30T18:16:22.927Z,32.10
2018-07-30T18:18:53.114Z,31.90
2018-07-30T18:21:23.082Z,31.90
2018-07-30T18:27:03.595Z,32.10
2018-07-30T18:29:33.885Z,31.90
2018-07-30T18:32:04.381Z,31.70
2018-07-30T18:34:40.109Z,31.50
2018-07-30T18:37:10.026Z,31.50
2018-07-30T18:39:43.178Z,31.60
2018-07-30T18:42:13.523Z,31.40
2018-07-30T18:45:11.644Z,31.30
2018-07-30T18:47:53.247Z,31.10
2018-07-30T18:50:23.135Z,30.90
2018-07-30T18:52:53.112Z,30.90
2018-07-30T18:55:23.942Z,31.00
2018-07-30T18:57:53.839Z,30.80
2018-07-30T19:00:23.864Z,30.30
2018-07-30T19:02:54.218Z,30.10
2018-07-30T19:05:24.334Z,30.00
2018-07-30T19:07:54.507Z,29.80
2018-07-30T19:10:49.891Z,30.10
2018-07-30T19:13:27.254Z,29.80
2018-07-30T19:19:15.659Z,29.30
2018-07-30T19:21:45.741Z,29.50
2018-07-30T19:24:15.891Z,29.40
2018-07-30T19:29:56.731Z,29.90
2018-07-30T19:32:26.682Z,30.00
2018-07-30T19:34:59.799Z,29.90
2018-07-30T19:37:30.209Z,29.40
2018-07-30T19:40:00.374Z,28.90
2018-07-30T19:42:30.479Z,28.80
2018-07-30T19:45:00.607Z,28.80
2018-07-30T19:47:30.488Z,29.10
2018-07-30T19:50:00.663Z,29.10
2018-07-30T19:52:30.623Z,29.00
2018-07-30T19:55:00.944Z,29.00
2018-07-30T19:57:35.243Z,28.50
2018-07-30T20:00:08.596Z,28.70
2018-07-30T20:02:39.004Z,28.90
2018-07-30T20:05:09.761Z,28.70
2018-07-30T20:07:39.939Z,29.00
2018-07-30T20:10:10.257Z,29.00
2018-07-30T20:12:40.570Z,29.00
2018-07-30T20:15:10.912Z,28.70
2018-07-30T20:17:40.847Z,28.70
2018-07-30T20:20:16.215Z,28.60
2018-07-30T20:22:46.708Z,27.90
2018-07-30T20:25:21.651Z,27.60
2018-07-30T20:27:51.761Z,27.90
2018-07-30T20:30:22.338Z,28.10
2018-07-30T20:32:52.678Z,28.20
2018-07-30T20:35:23.804Z,28.00
2018-07-30T20:38:33.920Z,27.80
2018-07-30T20:41:04.634Z,27.30
2018-07-30T20:43:35.406Z,27.50
2018-07-30T20:46:12.041Z,27.60
2018-07-30T20:48:43.399Z,27.30
2018-07-30T20:51:13.803Z,27.40
2018-07-30T20:53:44.003Z,27.70
2018-07-30T20:56:14.035Z,27.60
2018-07-30T20:58:44.163Z,27.60
2018-07-30T21:01:14.263Z,27.70
2018-07-30T21:03:44.424Z,27.80
2018-07-30T21:06:14.372Z,27.80
2018-07-30T21:08:44.616Z,27.20
2018-07-30T21:11:14.639Z,26.90
2018-07-30T21:13:52.253Z,27.10
2018-07-30T21:16:22.372Z,27.40
2018-07-30T21:19:04.894Z,27.50
2018-07-30T21:21:43.379Z,27.50
2018-07-30T21:24:13.544Z,27.50
2018-07-30T21:26:43.428Z,27.50
2018-07-30T21:29:13.462Z,27.00
2018-07-30T21:31:43.660Z,26.50
2018-07-30T21:34:14.229Z,26.50
2018-07-30T21:36:44.017Z,26.80
2018-07-30T21:39:14.552Z,27.10
2018-07-30T21:41:44.348Z,27.20
2018-07-30T21:44:14.288Z,27.30
2018-07-30T21:46:44.230Z,27.20
2018-07-30T21:49:14.246Z,27.20
2018-07-30T21:51:44.055Z,27.00
2018-07-30T21:54:14.109Z,27.10
2018-07-30T21:56:43.934Z,27.10
2018-07-30T21:59:13.805Z,27.20
2018-07-30T22:01:44.090Z,26.80
2018-07-30T22:04:14.159Z,26.20
2018-07-30T22:06:43.995Z,26.00
2018-07-30T22:09:14.220Z,26.00
2018-07-30T22:11:44.303Z,26.40
2018-07-30T22:14:14.479Z,26.80
2018-07-30T22:16:44.454Z,26.80
2018-07-30T22:19:14.322Z,25.80
2018-07-30T22:21:44.461Z,26.00
2018-07-30T22:24:14.542Z,25.80
2018-07-30T22:26:44.638Z,25.40
2018-07-30T22:29:14.790Z,25.30
2018-07-30T22:31:44.526Z,25.60
2018-07-30T22:34:14.661Z,25.90
2018-07-30T22:36:44.372Z,25.90
2018-07-30T22:39:14.477Z,26.10
2018-07-30T22:41:44.372Z,25.60
2018-07-30T22:44:14.169Z,25.50
2018-07-30T22:46:44.301Z,25.20
2018-07-30T22:49:14.345Z,24.70
2018-07-30T22:51:44.320Z,24.30
2018-07-30T22:54:14.202Z,24.20
2018-07-30T22:56:43.982Z,24.50
2018-07-30T22:59:14.390Z,24.30
2018-07-30T23:01:44.156Z,24.50
2018-07-30T23:04:14.177Z,24.70
2018-07-30T23:06:43.954Z,24.70
2018-07-30T23:09:14.075Z,24.50
2018-07-30T23:11:44.161Z,24.20
2018-07-30T23:14:13.994Z,24.10
2018-07-30T23:16:43.804Z,24.40
2018-07-30T23:19:13.571Z,24.30
2018-07-30T23:21:43.579Z,24.00
2018-07-30T23:24:13.634Z,24.50
2018-07-30T23:26:43.846Z,25.00
2018-07-30T23:29:13.893Z,25.10
2018-07-30T23:31:43.667Z,25.20
2018-07-30T23:34:13.849Z,24.70
2018-07-30T23:36:43.659Z,24.50
2018-07-30T23:39:13.780Z,24.20
2018-07-30T23:41:43.862Z,24.10
2018-07-30T23:44:13.963Z,24.00
2018-07-30T23:46:43.835Z,23.70
2018-07-30T23:49:13.983Z,23.80
2018-07-30T23:51:44.107Z,23.80
2018-07-30T23:54:14.145Z,23.50
2018-07-30T23:56:44.103Z,23.90
2018-07-30T23:59:14.249Z,23.70
